Air Resources Laboratory banner image
Air Resources Laboratory web site National Oceanic and Atmospheric Administration (NOAA)

ga metar


KABY 231153Z 00000KT 10SM CLR 22/20 A3005 RMK AO2 SLP173 T02170200 10228 20211
 53006=
KAGS 231153Z 00000KT 2SM BR OVC002 19/19 A3007 RMK AO2 SLP182 T01940189 10206
 20183 51007 $=
KAHN 231151Z 00000KT 9SM SCT060 19/18 A3009 RMK AO2 SLP183 T01890183 10206
 20183 53007=
KAMG 231153Z AUTO 00000KT 4SM BR CLR 22/21 A3004 RMK AO2 SLP170 T02170206 10217
 20206 53008=
KATL 231152Z 13003KT 10SM SCT250 21/18 A3007 RMK AO2 SLPNO T02110183 10233
 20206 53005 $=
KAYS 231155Z AUTO 00000KT 10SM CLR 22/20 A3004 RMK AO2 T02170200 10224 20212=
KBQK 231155Z AUTO 00000KT 10SM SCT030 BKN048 OVC060 22/21 A3004 RMK AO2=
KCCO 231155Z AUTO 00000KT 10SM CLR 19/17 A3007 RMK AO2 T01900171 10225 20188=
KCSG 231151Z AUTO 09003KT 10SM CLR 22/19 A3004 RMK AO2 SLP167 T02170194 10233
 20200 53004=
KDNL 231153Z AUTO 08003KT 7SM CLR 22/21 A3009 RMK AO2 SLP182 T02220206 10233
 20217 53010=
KDNN 231155Z AUTO 00000KT 10SM CLR 18/18 A3007 RMK AO2=
KFFC 231153Z AUTO 00000KT 6SM BR CLR 18/17 A3008 RMK AO2 SLP180 T01830172 10200
 20178 53006=
KFTY 231153Z 00000KT 10SM CLR 18/18 A3007 RMK AO2 SLP171 T01830183 10217 20183
 53005=
KGVL 231153Z AUTO 00000KT 10SM CLR 20/19 A3012 RMK AO2 SLP184 T02000189 10233
 20194 53006=
KLGC 231155Z AUTO 00000KT 2 1/2SM BR CLR 18/18 A3006 RMK AO2 VIS 1/2V5
 T01810178 10202 20176=
KLHW 231156Z AUTO 00000KT 10SM CLR 21/20 A3003 RMK AO2 SLP172 T02060196 10208
 20199 53008 $=
KLSF 231156Z AUTO 00000KT 10SM CLR 18/18 A3002 RMK AO2 SLP169 T01780178 10192
 20174 53003 $=
KLZU 231156Z 08003KT 7SM FEW060 18/17 A3009 RMK AO2 SLP181 T01780172 10200
 20172 $=
KMCN 231153Z AUTO 00000KT 10SM CLR 19/18 A3006 RMK AO2 SLP176 T01890183 10211
 20178 53009 $=
KMGE 231156Z 35003KT 10SM FEW150 BKN250 20/18 A3007 RMK AO2A SLP174 T02010175
 10226 20189 53005 $=
KMGR 231155Z AUTO 10003KT 10SM CLR 21/21 A3004 RMK AO2=
KOPN 231155Z AUTO 00000KT 7SM CLR 18/17 A3008 RMK AO2=
KPDK 231153Z 00000KT 8SM CLR 19/18 A3007 RMK AO2 SLP171 T01890178 10206 20183
 53006=
KRMG 231153Z AUTO 00000KT 6SM BR SCT060 19/18 A3005 RMK AO2 SLP165 T01940178
 10211 20183 53007=
KRYY 231148Z 00000KT 10SM SCT100 20/18 A3008 RMK AO2 SLP905 T02000178 10239
 20200 53005=
KSAV 231153Z 36003KT 10SM FEW025 FEW150 22/22 A3005 RMK AO2 SLP175 T02170217
 10217 20211 53005 $=
KSSI 231153Z AUTO 00000KT 10SM FEW045 OVC060 26/22 A3003 RMK AO2 SLP170 70008
 T02610222 10272 20244 53007=
KSVN 231156Z AUTO 00000KT 10SM CLR 22/21 A3002 RMK AO2 SLP169 T02240208 10235
 20219 53006 FZRANO $=
KVAD 231156Z AUTO 00000KT 10SM BKN070 22/22 A3002 RMK AO2 SLP166 T02160216
 10226 20211 53006 $=
KVDI 231155Z AUTO 00000KT 10SM CLR 21/18 A3007 RMK AO2=
KVLD 231153Z 00000KT 10SM CLR 22/22 A3003 RMK AO2 SLP175 T02170217 10233 20206
 53009=
KVPC 231153Z AUTO 00000KT 8SM CLR 18/18 A3007 RMK AO2 SLP171 T01780178 10211
 20178 53007=
KWRB 231156Z 00000KT 10SM FEW060 FEW200 19/19 A3005 RMK AO2A SLP176 T01880186
 10205 20183 52010=